Time,TemperatureF,DewpointF,PressureIn,WindDirection,WindDirectionDegrees,WindSpeedMPH,WindSpeedGustMPH,Humidity,HourlyPrecipIn,Conditions,Clouds,dailyrainin,SoftwareType,DateUTC
2013-01-30 00:01:00,35.5,33.9,30.04,NNW,338,0.0,0.0,94,0.00,,,0.02,Wunderground v.1.15,2013-01-30 05:01:00,
2013-01-30 00:10:00,35.9,34.3,30.04,NNW,338,0.0,0.0,94,0.00,,,0.00,Wunderground v.1.15,2013-01-30 05:10:00,
2013-01-30 00:20:00,36.4,34.6,30.04,NNW,334,0.0,0.0,93,0.00,,,0.00,Wunderground v.1.15,2013-01-30 05:20:00,
2013-01-30 00:30:00,36.7,34.9,30.03,NNW,335,0.0,0.0,93,0.00,,,0.00,Wunderground v.1.15,2013-01-30 05:30:00,
2013-01-30 00:40:00,36.9,35.1,30.02,NNW,342,0.0,0.0,93,0.00,,,0.00,Wunderground v.1.15,2013-01-30 05:40:00,
2013-01-30 00:50:00,37.1,35.3,30.02,North,357,0.0,1.0,93,0.00,,,0.00,Wunderground v.1.15,2013-01-30 05:50:00,
2013-01-30 01:00:00,37.3,35.2,30.02,NNW,341,1.0,1.0,92,0.00,,,0.00,Wunderground v.1.15,2013-01-30 06:00:00,
2013-01-30 01:10:00,37.5,35.4,30.02,NNW,342,0.0,1.0,92,0.00,,,0.00,Wunderground v.1.15,2013-01-30 06:10:00,
2013-01-30 01:20:00,37.6,35.8,30.01,NNW,346,1.0,1.0,93,0.00,,,0.00,Wunderground v.1.15,2013-01-30 06:20:00,
2013-01-30 01:30:00,37.7,35.9,30.01,NNW,347,1.0,1.0,93,0.00,,,0.01,Wunderground v.1.15,2013-01-30 06:30:00,
2013-01-30 01:40:00,37.8,36.2,30.00,North,354,1.0,1.0,94,0.00,,,0.01,Wunderground v.1.15,2013-01-30 06:40:00,
2013-01-30 01:50:00,37.7,36.1,30.00,North,351,1.0,1.0,94,0.00,,,0.01,Wunderground v.1.15,2013-01-30 06:50:00,
2013-01-30 02:00:00,37.8,36.5,29.99,NNW,341,1.0,1.0,95,0.00,,,0.01,Wunderground v.1.15,2013-01-30 07:00:00,
2013-01-30 02:10:00,37.8,36.5,29.99,NNW,340,1.0,1.0,95,0.00,,,0.01,Wunderground v.1.15,2013-01-30 07:10:00,
2013-01-30 02:20:00,37.8,36.8,29.98,NNW,342,1.0,1.0,96,0.00,,,0.01,Wunderground v.1.15,2013-01-30 07:20:00,
2013-01-30 02:30:00,37.9,36.9,29.98,NNW,339,1.0,1.0,96,0.00,,,0.01,Wunderground v.1.15,2013-01-30 07:30:00,
2013-01-30 02:40:00,38.0,37.0,29.98,North,349,1.0,1.0,96,0.00,,,0.01,Wunderground v.1.15,2013-01-30 07:40:00,
2013-01-30 02:50:00,38.0,37.0,29.97,North,349,1.0,1.0,96,0.00,,,0.01,Wunderground v.1.15,2013-01-30 07:50:00,
2013-01-30 03:00:00,38.2,37.4,29.96,NW,316,1.0,4.0,97,0.00,,,0.01,Wunderground v.1.15,2013-01-30 08:00:00,
2013-01-30 03:10:00,38.3,37.5,29.96,NNW,343,1.0,2.0,97,0.00,,,0.01,Wunderground v.1.15,2013-01-30 08:10:00,
2013-01-30 03:20:00,38.4,37.6,29.96,NNW,335,1.0,1.0,97,0.00,,,0.01,Wunderground v.1.15,2013-01-30 08:20:00,
2013-01-30 03:30:00,38.6,37.8,29.95,NNW,345,1.0,1.0,97,0.00,,,0.01,Wunderground v.1.15,2013-01-30 08:30:00,
2013-01-30 03:40:00,38.7,37.9,29.95,NNW,343,1.0,1.0,97,0.00,,,0.01,Wunderground v.1.15,2013-01-30 08:40:00,
2013-01-30 03:50:00,38.8,38.0,29.95,NNW,347,1.0,1.0,97,0.00,,,0.01,Wunderground v.1.15,2013-01-30 08:50:00,
2013-01-30 04:00:00,38.9,38.1,29.95,NNW,332,1.0,1.0,97,0.00,,,0.01,Wunderground v.1.15,2013-01-30 09:00:00,
2013-01-30 04:10:00,38.9,38.1,29.94,NNW,344,1.0,2.0,97,0.00,,,0.01,Wunderground v.1.15,2013-01-30 09:10:00,
2013-01-30 04:20:00,39.1,38.3,29.92,North,353,1.0,2.0,97,0.00,,,0.01,Wunderground v.1.15,2013-01-30 09:20:00,
2013-01-30 04:30:00,39.2,38.4,29.92,NNW,343,1.0,1.0,97,0.00,,,0.01,Wunderground v.1.15,2013-01-30 09:30:00,
2013-01-30 04:40:00,39.2,38.4,29.91,NNW,339,1.0,1.0,97,0.00,,,0.01,Wunderground v.1.15,2013-01-30 09:40:00,
2013-01-30 04:50:00,39.3,38.5,29.91,NNW,338,1.0,2.0,97,0.00,,,0.01,Wunderground v.1.15,2013-01-30 09:50:00,
2013-01-30 05:00:00,39.3,38.5,29.91,WNW,296,1.0,1.0,97,0.00,,,0.01,Wunderground v.1.15,2013-01-30 10:00:00,
2013-01-30 05:10:00,39.4,38.6,29.90,NNW,334,1.0,2.0,97,0.00,,,0.01,Wunderground v.1.15,2013-01-30 10:10:00,
2013-01-30 05:20:00,39.4,38.6,29.91,NNW,342,1.0,1.0,97,0.00,,,0.01,Wunderground v.1.15,2013-01-30 10:20:00,
2013-01-30 05:30:00,39.4,38.6,29.90,North,352,1.0,1.0,97,0.00,,,0.01,Wunderground v.1.15,2013-01-30 10:30:00,
2013-01-30 05:40:00,39.5,38.7,29.90,NNW,333,1.0,1.0,97,0.00,,,0.01,Wunderground v.1.15,2013-01-30 10:40:00,
2013-01-30 05:50:00,39.5,38.7,29.90,North,352,1.0,1.0,97,0.00,,,0.01,Wunderground v.1.15,2013-01-30 10:50:00,
2013-01-30 06:00:00,39.5,38.7,29.90,NNW,347,1.0,2.0,97,0.00,,,0.01,Wunderground v.1.15,2013-01-30 11:00:00,
2013-01-30 06:10:00,39.6,38.8,29.89,NNW,328,1.0,3.0,97,0.00,,,0.01,Wunderground v.1.15,2013-01-30 11:10:00,
2013-01-30 06:20:00,39.6,38.8,29.88,NNW,346,1.0,2.0,97,0.00,,,0.01,Wunderground v.1.15,2013-01-30 11:20:00,
2013-01-30 06:30:00,39.7,38.9,29.88,NNW,346,1.0,1.0,97,0.00,,,0.01,Wunderground v.1.15,2013-01-30 11:30:00,
2013-01-30 06:40:00,39.6,38.8,29.88,NNW,348,1.0,1.0,97,0.00,,,0.01,Wunderground v.1.15,2013-01-30 11:40:00,
2013-01-30 06:50:00,39.9,39.4,29.87,NNW,336,2.0,2.0,98,0.00,,,0.01,Wunderground v.1.15,2013-01-30 11:50:00,
2013-01-30 07:00:00,39.9,39.4,29.87,NNW,337,1.0,1.0,98,0.00,,,0.01,Wunderground v.1.15,2013-01-30 12:00:00,
2013-01-30 07:10:00,39.9,39.4,29.87,WNW,285,2.0,2.0,98,0.00,,,0.01,Wunderground v.1.15,2013-01-30 12:10:00,
2013-01-30 07:20:00,40.0,39.5,29.87,NNW,344,1.0,1.0,98,0.00,,,0.01,Wunderground v.1.15,2013-01-30 12:20:00,
2013-01-30 07:30:00,40.1,39.6,29.86,NNW,340,1.0,2.0,98,0.00,,,0.01,Wunderground v.1.15,2013-01-30 12:30:00,
2013-01-30 07:40:00,40.1,39.6,29.85,NNW,335,1.0,2.0,98,0.00,,,0.01,Wunderground v.1.15,2013-01-30 12:40:00,
2013-01-30 07:50:00,40.3,39.8,29.85,North,354,1.0,1.0,98,0.00,,,0.01,Wunderground v.1.15,2013-01-30 12:50:00,
2013-01-30 08:00:00,40.5,40.0,29.84,North,1,1.0,1.0,98,0.00,,,0.01,Wunderground v.1.15,2013-01-30 13:00:00,
2013-01-30 08:10:00,40.6,40.1,29.84,NNW,345,1.0,1.0,98,0.00,,,0.01,Wunderground v.1.15,2013-01-30 13:10:00,
2013-01-30 08:20:00,40.9,40.4,29.84,NNW,346,1.0,1.0,98,0.00,,,0.01,Wunderground v.1.15,2013-01-30 13:20:00,
2013-01-30 08:30:00,41.1,40.6,29.83,NNW,342,1.0,1.0,98,0.00,,,0.01,Wunderground v.1.15,2013-01-30 13:30:00,
2013-01-30 08:40:00,41.3,40.8,29.82,NNW,340,1.0,1.0,98,0.00,,,0.01,Wunderground v.1.15,2013-01-30 13:40:00,
2013-01-30 08:50:00,41.6,41.1,29.82,NNW,346,0.0,0.0,98,0.00,,,0.01,Wunderground v.1.15,2013-01-30 13:50:00,
2013-01-30 09:00:00,41.9,41.4,29.81,NNW,340,1.0,1.0,98,0.00,,,0.01,Wunderground v.1.15,2013-01-30 14:00:00,
2013-01-30 09:10:00,42.2,41.7,29.81,North,357,1.0,1.0,98,0.00,,,0.01,Wunderground v.1.15,2013-01-30 14:10:00,
2013-01-30 09:20:00,42.2,41.7,29.81,NNW,338,1.0,1.0,98,0.00,,,0.01,Wunderground v.1.15,2013-01-30 14:20:00,
2013-01-30 09:30:00,42.4,41.9,29.80,NNW,328,1.0,2.0,98,0.00,,,0.01,Wunderground v.1.15,2013-01-30 14:30:00,
2013-01-30 09:40:00,42.6,42.1,29.79,NNW,344,2.0,2.0,98,0.00,,,0.01,Wunderground v.1.15,2013-01-30 14:40:00,
2013-01-30 09:50:00,42.5,42.0,29.78,North,349,1.0,1.0,98,0.00,,,0.01,Wunderground v.1.15,2013-01-30 14:50:00,
2013-01-30 10:00:00,42.5,42.0,29.77,North,350,2.0,2.0,98,0.00,,,0.01,Wunderground v.1.15,2013-01-30 15:00:00,
2013-01-30 10:10:00,42.7,42.2,29.76,NNW,346,2.0,2.0,98,0.00,,,0.01,Wunderground v.1.15,2013-01-30 15:10:00,
2013-01-30 10:20:00,43.0,42.5,29.75,NNE,33,2.0,2.0,98,0.00,,,0.01,Wunderground v.1.15,2013-01-30 15:20:00,
2013-01-30 10:30:00,43.2,42.7,29.74,NNW,342,1.0,2.0,98,0.00,,,0.01,Wunderground v.1.15,2013-01-30 15:30:00,
2013-01-30 10:40:00,43.4,42.9,29.74,NW,314,1.0,1.0,98,0.00,,,0.01,Wunderground v.1.15,2013-01-30 15:40:00,
2013-01-30 10:50:00,43.7,43.2,29.73,NNW,339,1.0,1.0,98,0.00,,,0.01,Wunderground v.1.15,2013-01-30 15:50:00,
2013-01-30 11:00:00,43.7,43.2,29.73,North,352,1.0,1.0,98,0.00,,,0.01,Wunderground v.1.15,2013-01-30 16:00:00,
2013-01-30 11:10:00,44.0,43.5,29.72,North,359,1.0,1.0,98,0.00,,,0.01,Wunderground v.1.15,2013-01-30 16:10:00,
2013-01-30 11:20:00,44.7,44.2,29.70,NNW,348,1.0,1.0,98,0.00,,,0.01,Wunderground v.1.15,2013-01-30 16:20:00,
2013-01-30 11:30:00,45.3,44.8,29.67,NNW,341,2.0,2.0,98,0.00,,,0.01,Wunderground v.1.15,2013-01-30 16:30:00,
2013-01-30 11:40:00,45.0,44.5,29.67,NNW,346,1.0,1.0,98,0.00,,,0.01,Wunderground v.1.15,2013-01-30 16:40:00,
2013-01-30 11:50:00,45.6,45.1,29.65,NNW,334,2.0,2.0,98,0.00,,,0.01,Wunderground v.1.15,2013-01-30 16:50:00,
2013-01-30 12:00:00,45.7,45.2,29.65,NNW,336,2.0,3.0,98,0.00,,,0.01,Wunderground v.1.15,2013-01-30 17:00:00,
2013-01-30 12:10:00,46.1,45.6,29.65,North,1,2.0,2.0,98,0.00,,,0.01,Wunderground v.1.15,2013-01-30 17:10:00,
2013-01-30 12:20:00,46.3,45.8,29.63,NNW,348,2.0,3.0,98,0.00,,,0.01,Wunderground v.1.15,2013-01-30 17:20:00,
2013-01-30 12:30:00,46.6,46.1,29.62,WNW,302,2.0,2.0,98,0.00,,,0.01,Wunderground v.1.15,2013-01-30 17:30:00,
2013-01-30 12:40:00,46.7,46.2,29.61,North,5,2.0,2.0,98,0.00,,,0.01,Wunderground v.1.15,2013-01-30 17:40:00,
2013-01-30 12:50:00,46.9,46.4,29.61,NNW,339,2.0,3.0,98,0.00,,,0.01,Wunderground v.1.15,2013-01-30 17:50:00,
2013-01-30 13:00:00,47.4,46.9,29.60,NNW,335,2.0,3.0,98,0.00,,,0.01,Wunderground v.1.15,2013-01-30 18:00:00,
2013-01-30 13:10:00,47.4,46.9,29.59,North,360,2.0,2.0,98,0.00,,,0.01,Wunderground v.1.15,2013-01-30 18:10:00,
2013-01-30 13:20:00,47.6,47.1,29.58,ENE,67,1.0,1.0,98,0.00,,,0.01,Wunderground v.1.15,2013-01-30 18:20:00,
2013-01-30 13:30:00,47.7,47.2,29.57,North,352,2.0,2.0,98,0.00,,,0.01,Wunderground v.1.15,2013-01-30 18:30:00,
2013-01-30 13:40:00,47.8,47.3,29.57,NNE,29,2.0,2.0,98,0.00,,,0.01,Wunderground v.1.15,2013-01-30 18:40:00,
2013-01-30 13:50:00,47.9,47.4,29.56,NNW,330,2.0,2.0,98,0.00,,,0.01,Wunderground v.1.15,2013-01-30 18:50:00,
2013-01-30 14:00:00,47.7,47.2,29.55,NNW,343,1.0,1.0,98,0.00,,,0.01,Wunderground v.1.15,2013-01-30 19:00:00,
2013-01-30 14:10:00,47.8,47.3,29.55,NNW,340,2.0,3.0,98,0.00,,,0.01,Wunderground v.1.15,2013-01-30 19:10:00,
2013-01-30 14:20:00,47.7,47.2,29.54,NNW,346,2.0,2.0,98,0.00,,,0.01,Wunderground v.1.15,2013-01-30 19:20:00,
2013-01-30 14:30:00,47.7,47.2,29.54,North,350,2.0,2.0,98,0.00,,,0.01,Wunderground v.1.15,2013-01-30 19:30:00,
2013-01-30 14:40:00,47.7,47.2,29.54,NNW,332,1.0,2.0,98,0.00,,,0.01,Wunderground v.1.15,2013-01-30 19:40:00,
2013-01-30 14:50:00,47.9,47.4,29.53,NE,41,2.0,2.0,98,0.00,,,0.01,Wunderground v.1.15,2013-01-30 19:50:00,
2013-01-30 15:00:00,48.2,47.7,29.52,NW,307,2.0,2.0,98,0.00,,,0.01,Wunderground v.1.15,2013-01-30 20:00:00,
2013-01-30 15:10:00,48.5,48.0,29.51,NW,318,2.0,2.0,98,0.00,,,0.01,Wunderground v.1.15,2013-01-30 20:10:00,
2013-01-30 15:20:00,48.6,48.1,29.51,NNE,18,2.0,2.0,98,0.00,,,0.01,Wunderground v.1.15,2013-01-30 20:20:00,
2013-01-30 15:30:00,48.6,48.1,29.51,ESE,120,2.0,4.0,98,0.00,,,0.01,Wunderground v.1.15,2013-01-30 20:30:00,
2013-01-30 15:40:00,48.3,47.8,29.50,North,356,2.0,2.0,98,0.00,,,0.01,Wunderground v.1.15,2013-01-30 20:40:00,
2013-01-30 15:50:00,48.2,47.7,29.49,NW,318,1.0,1.0,98,0.00,,,0.01,Wunderground v.1.15,2013-01-30 20:50:00,
2013-01-30 16:00:00,48.4,47.9,29.48,NNW,344,1.0,1.0,98,0.00,,,0.01,Wunderground v.1.15,2013-01-30 21:00:00,
2013-01-30 16:10:00,48.8,48.3,29.47,North,356,2.0,2.0,98,0.00,,,0.01,Wunderground v.1.15,2013-01-30 21:10:00,
2013-01-30 16:20:00,49.3,48.8,29.47,NNW,344,2.0,2.0,98,0.00,,,0.01,Wunderground v.1.15,2013-01-30 21:20:00,
2013-01-30 16:30:00,49.4,48.9,29.46,North,9,2.0,2.0,98,0.00,,,0.01,Wunderground v.1.15,2013-01-30 21:30:00,
2013-01-30 16:40:00,49.9,49.4,29.45,SE,125,2.0,2.0,98,0.00,,,0.01,Wunderground v.1.15,2013-01-30 21:40:00,
2013-01-30 16:50:00,50.1,49.6,29.46,NNW,347,2.0,2.0,98,0.00,,,0.01,Wunderground v.1.15,2013-01-30 21:50:00,
2013-01-30 17:00:00,50.4,49.9,29.46,NE,50,2.0,2.0,98,0.00,,,0.01,Wunderground v.1.15,2013-01-30 22:00:00,
2013-01-30 17:10:00,50.3,49.8,29.47,North,4,2.0,2.0,98,0.00,,,0.01,Wunderground v.1.15,2013-01-30 22:10:00,
2013-01-30 17:20:00,50.3,49.8,29.45,SE,141,2.0,2.0,98,0.00,,,0.01,Wunderground v.1.15,2013-01-30 22:20:00,
2013-01-30 17:30:00,50.5,50.0,29.45,South,181,2.0,2.0,98,0.00,,,0.01,Wunderground v.1.15,2013-01-30 22:30:00,
2013-01-30 17:40:00,50.8,50.3,29.45,NNW,337,2.0,2.0,98,0.00,,,0.01,Wunderground v.1.15,2013-01-30 22:40:00,
2013-01-30 17:50:00,50.9,50.4,29.45,West,274,2.0,2.0,98,0.00,,,0.01,Wunderground v.1.15,2013-01-30 22:50:00,
2013-01-30 18:00:00,50.8,50.3,29.46,NW,321,3.0,3.0,98,0.00,,,0.02,Wunderground v.1.15,2013-01-30 23:00:00,
2013-01-30 18:10:00,50.6,50.1,29.45,North,350,3.0,4.0,98,0.14,,,0.04,Wunderground v.1.15,2013-01-30 23:10:00,
2013-01-30 18:20:00,50.6,50.1,29.45,NNE,33,2.0,2.0,98,0.12,,,0.06,Wunderground v.1.15,2013-01-30 23:20:00,
2013-01-30 18:30:00,50.5,50.0,29.45,North,351,2.0,2.0,98,0.05,,,0.06,Wunderground v.1.15,2013-01-30 23:30:00,
2013-01-30 18:40:00,50.6,50.1,29.45,SE,142,2.0,2.0,98,0.00,,,0.06,Wunderground v.1.15,2013-01-30 23:40:00,
2013-01-30 18:50:00,50.7,50.2,29.44,SSE,160,2.0,2.0,98,0.00,,,0.06,Wunderground v.1.15,2013-01-30 23:50:00,
2013-01-30 19:00:00,50.8,50.3,29.44,NNW,340,2.0,2.0,98,0.00,,,0.07,Wunderground v.1.15,2013-01-31 00:00:00,
2013-01-30 19:10:00,50.8,50.3,29.44,ESE,108,2.0,2.0,98,0.00,,,0.07,Wunderground v.1.15,2013-01-31 00:10:00,
2013-01-30 19:20:00,50.8,50.3,29.43,NNW,328,2.0,3.0,98,0.00,,,0.07,Wunderground v.1.15,2013-01-31 00:20:00,
2013-01-30 19:30:00,50.9,50.4,29.43,North,357,2.0,2.0,98,0.00,,,0.07,Wunderground v.1.15,2013-01-31 00:30:00,
2013-01-30 19:40:00,50.9,50.4,29.43,NNW,335,2.0,2.0,98,0.00,,,0.07,Wunderground v.1.15,2013-01-31 00:40:00,
2013-01-30 19:50:00,50.7,50.2,29.43,NNW,343,2.0,3.0,98,0.00,,,0.07,Wunderground v.1.15,2013-01-31 00:50:00,
2013-01-30 20:00:00,50.6,50.1,29.42,NNW,334,2.0,2.0,98,0.00,,,0.07,Wunderground v.1.15,2013-01-31 01:00:00,
2013-01-30 20:10:00,50.6,50.1,29.42,North,349,2.0,2.0,98,0.45,,,0.09,Wunderground v.1.15,2013-01-31 01:10:00,
2013-01-30 20:20:00,50.9,50.4,29.42,NNW,338,2.0,2.0,98,0.51,,,0.13,Wunderground v.1.15,2013-01-31 01:20:00,
2013-01-30 20:30:00,50.9,50.4,29.41,East,92,2.0,2.0,98,0.08,,,0.15,Wunderground v.1.15,2013-01-31 01:30:00,
2013-01-30 20:40:00,51.2,50.7,29.41,NNW,343,2.0,2.0,98,0.00,,,0.15,Wunderground v.1.15,2013-01-31 01:40:00,
2013-01-30 20:50:00,51.2,50.7,29.41,NE,56,2.0,2.0,98,0.00,,,0.15,Wunderground v.1.15,2013-01-31 01:50:00,
2013-01-30 21:00:00,51.3,50.8,29.40,NNW,348,2.0,2.0,98,0.18,,,0.17,Wunderground v.1.15,2013-01-31 02:00:00,
2013-01-30 21:10:00,51.4,50.9,29.39,NNW,332,2.0,2.0,98,0.05,,,0.17,Wunderground v.1.15,2013-01-31 02:10:00,
2013-01-30 21:20:00,51.9,51.4,29.39,North,351,2.0,6.0,98,0.00,,,0.17,Wunderground v.1.15,2013-01-31 02:20:00,
2013-01-30 21:30:00,51.9,51.4,29.38,ESE,122,3.0,3.0,98,0.00,,,0.17,Wunderground v.1.15,2013-01-31 02:30:00,
2013-01-30 21:40:00,51.8,51.3,29.37,ENE,70,3.0,3.0,98,0.00,,,0.17,Wunderground v.1.15,2013-01-31 02:40:00,
2013-01-30 21:50:00,52.0,51.5,29.37,ENE,57,3.0,3.0,98,0.00,,,0.17,Wunderground v.1.15,2013-01-31 02:50:00,
2013-01-30 22:00:00,52.0,51.5,29.37,SSE,166,3.0,3.0,98,0.00,,,0.17,Wunderground v.1.15,2013-01-31 03:00:00,
2013-01-30 22:10:00,51.9,51.4,29.35,SW,226,2.0,3.0,98,0.00,,,0.17,Wunderground v.1.15,2013-01-31 03:10:00,
2013-01-30 22:20:00,51.8,51.3,29.36,ESE,115,2.0,4.0,98,0.00,,,0.17,Wunderground v.1.15,2013-01-31 03:20:00,
2013-01-30 22:30:00,52.0,51.5,29.36,NE,50,3.0,3.0,98,0.00,,,0.17,Wunderground v.1.15,2013-01-31 03:30:00,
2013-01-30 22:40:00,51.9,51.4,29.35,ENE,75,3.0,3.0,98,0.00,,,0.17,Wunderground v.1.15,2013-01-31 03:40:00,
2013-01-30 22:50:00,52.0,51.5,29.35,NNW,337,2.0,2.0,98,0.00,,,0.17,Wunderground v.1.15,2013-01-31 03:50:00,
2013-01-30 23:00:00,52.4,51.9,29.35,North,1,2.0,2.0,98,0.00,,,0.17,Wunderground v.1.15,2013-01-31 04:00:00,
2013-01-30 23:10:00,52.6,52.1,29.35,NNW,345,3.0,5.0,98,0.00,,,0.17,Wunderground v.1.15,2013-01-31 04:10:00,
2013-01-30 23:20:00,52.6,52.1,29.33,WNW,283,2.0,2.0,98,0.00,,,0.17,Wunderground v.1.15,2013-01-31 04:20:00,
2013-01-30 23:30:00,52.6,52.1,29.34,North,358,3.0,3.0,98,0.00,,,0.17,Wunderground v.1.15,2013-01-31 04:30:00,
2013-01-30 23:40:00,52.5,52.0,29.34,SE,132,2.0,2.0,98,0.00,,,0.17,Wunderground v.1.15,2013-01-31 04:40:00,
2013-01-30 23:50:00,52.4,51.9,29.33,NNE,22,3.0,3.0,98,0.00,,,0.17,Wunderground v.1.15,2013-01-31 04:50:00,